sensor_id;sensor_type;location;lat;lon;timestamp;temperature;humidity
78184;DHT22;67442;44.570;18.610;2023-08-20T00:00:29;25.10;56.20
78184;DHT22;67442;44.570;18.610;2023-08-20T00:03:03;25.10;56.10
78184;DHT22;67442;44.570;18.610;2023-08-20T00:05:31;25.20;56.20
78184;DHT22;67442;44.570;18.610;2023-08-20T00:07:59;25.10;56.10
78184;DHT22;67442;44.570;18.610;2023-08-20T00:10:32;25.10;56.00
78184;DHT22;67442;44.570;18.610;2023-08-20T00:12:59;25.10;56.00
78184;DHT22;67442;44.570;18.610;2023-08-20T00:15:25;25.10;56.00
78184;DHT22;67442;44.570;18.610;2023-08-20T00:17:57;25.10;56.00
78184;DHT22;67442;44.570;18.610;2023-08-20T00:20:26;25.10;55.90
78184;DHT22;67442;44.570;18.610;2023-08-20T00:22:56;25.10;55.90
78184;DHT22;67442;44.570;18.610;2023-08-20T00:25:24;25.10;55.90
78184;DHT22;67442;44.570;18.610;2023-08-20T00:27:51;25.10;55.90
78184;DHT22;67442;44.570;18.610;2023-08-20T00:30:22;25.10;55.90
78184;DHT22;67442;44.570;18.610;2023-08-20T00:32:49;25.10;55.90
78184;DHT22;67442;44.570;18.610;2023-08-20T00:35:17;25.10;55.80
78184;DHT22;67442;44.570;18.610;2023-08-20T00:37:44;25.10;55.80
78184;DHT22;67442;44.570;18.610;2023-08-20T00:40:16;25.10;55.80
78184;DHT22;67442;44.570;18.610;2023-08-20T00:42:42;25.10;55.70
78184;DHT22;67442;44.570;18.610;2023-08-20T00:45:10;25.00;55.60
78184;DHT22;67442;44.570;18.610;2023-08-20T00:47:38;25.10;55.70
78184;DHT22;67442;44.570;18.610;2023-08-20T00:50:07;25.00;55.50
78184;DHT22;67442;44.570;18.610;2023-08-20T00:52:38;25.00;55.50
78184;DHT22;67442;44.570;18.610;2023-08-20T00:55:10;25.00;55.40
78184;DHT22;67442;44.570;18.610;2023-08-20T00:57:38;25.00;55.40
78184;DHT22;67442;44.570;18.610;2023-08-20T01:00:07;25.00;55.40
78184;DHT22;67442;44.570;18.610;2023-08-20T01:02:39;25.00;55.30
78184;DHT22;67442;44.570;18.610;2023-08-20T01:05:08;25.00;55.30
78184;DHT22;67442;44.570;18.610;2023-08-20T01:13:11;25.00;55.20
78184;DHT22;67442;44.570;18.610;2023-08-20T01:15:42;25.00;55.20
78184;DHT22;67442;44.570;18.610;2023-08-20T01:18:09;25.00;55.20
78184;DHT22;67442;44.570;18.610;2023-08-20T01:20:45;25.00;55.20
78184;DHT22;67442;44.570;18.610;2023-08-20T01:28:58;24.90;55.10
78184;DHT22;67442;44.570;18.610;2023-08-20T01:31:28;25.00;55.10
78184;DHT22;67442;44.570;18.610;2023-08-20T01:33:58;24.90;55.10
78184;DHT22;67442;44.570;18.610;2023-08-20T01:36:26;25.00;55.10
78184;DHT22;67442;44.570;18.610;2023-08-20T01:38:57;24.90;55.00
78184;DHT22;67442;44.570;18.610;2023-08-20T01:41:28;24.90;55.00
78184;DHT22;67442;44.570;18.610;2023-08-20T01:43:55;24.90;55.00
78184;DHT22;67442;44.570;18.610;2023-08-20T01:46:27;24.90;54.90
78184;DHT22;67442;44.570;18.610;2023-08-20T01:48:54;24.90;54.90
78184;DHT22;67442;44.570;18.610;2023-08-20T01:51:22;24.90;54.90
78184;DHT22;67442;44.570;18.610;2023-08-20T01:53:53;24.90;54.90
78184;DHT22;67442;44.570;18.610;2023-08-20T01:56:20;24.90;54.80
78184;DHT22;67442;44.570;18.610;2023-08-20T01:58:51;24.90;54.80
78184;DHT22;67442;44.570;18.610;2023-08-20T02:01:22;24.90;54.70
78184;DHT22;67442;44.570;18.610;2023-08-20T02:03:50;24.80;54.70
78184;DHT22;67442;44.570;18.610;2023-08-20T02:06:17;24.90;54.70
78184;DHT22;67442;44.570;18.610;2023-08-20T02:08:45;24.90;54.70
78184;DHT22;67442;44.570;18.610;2023-08-20T02:11:16;24.80;54.60
78184;DHT22;67442;44.570;18.610;2023-08-20T02:13:43;24.80;54.60
78184;DHT22;67442;44.570;18.610;2023-08-20T02:16:11;24.80;54.60
78184;DHT22;67442;44.570;18.610;2023-08-20T02:18:39;24.80;54.60
78184;DHT22;67442;44.570;18.610;2023-08-20T02:21:06;24.80;54.50
78184;DHT22;67442;44.570;18.610;2023-08-20T02:23:33;24.80;54.50
78184;DHT22;67442;44.570;18.610;2023-08-20T02:26:00;24.80;54.50
78184;DHT22;67442;44.570;18.610;2023-08-20T02:28:28;24.80;54.50
78184;DHT22;67442;44.570;18.610;2023-08-20T02:30:56;24.80;54.50
78184;DHT22;67442;44.570;18.610;2023-08-20T02:33:23;24.80;54.40
78184;DHT22;67442;44.570;18.610;2023-08-20T02:35:51;24.80;54.40
78184;DHT22;67442;44.570;18.610;2023-08-20T02:38:18;24.80;54.40
78184;DHT22;67442;44.570;18.610;2023-08-20T02:40:45;24.80;54.40
78184;DHT22;67442;44.570;18.610;2023-08-20T02:43:12;24.80;54.40
78184;DHT22;67442;44.570;18.610;2023-08-20T02:45:41;24.80;54.40
78184;DHT22;67442;44.570;18.610;2023-08-20T02:48:13;24.80;54.40
78184;DHT22;67442;44.570;18.610;2023-08-20T02:50:39;24.80;54.40
78184;DHT22;67442;44.570;18.610;2023-08-20T02:53:06;24.80;54.40
78184;DHT22;67442;44.570;18.610;2023-08-20T02:55:34;24.80;54.30
78184;DHT22;67442;44.570;18.610;2023-08-20T02:58:01;24.80;54.40
78184;DHT22;67442;44.570;18.610;2023-08-20T03:00:34;24.80;54.30
78184;DHT22;67442;44.570;18.610;2023-08-20T03:03:05;24.80;54.30
78184;DHT22;67442;44.570;18.610;2023-08-20T03:05:37;24.80;54.30
78184;DHT22;67442;44.570;18.610;2023-08-20T03:08:04;24.80;54.30
78184;DHT22;67442;44.570;18.610;2023-08-20T03:10:31;24.80;54.90
78184;DHT22;67442;44.570;18.610;2023-08-20T03:12:59;24.80;54.20
78184;DHT22;67442;44.570;18.610;2023-08-20T03:15:27;24.80;54.20
78184;DHT22;67442;44.570;18.610;2023-08-20T03:17:55;24.80;54.20
78184;DHT22;67442;44.570;18.610;2023-08-20T03:20:26;24.80;54.20
78184;DHT22;67442;44.570;18.610;2023-08-20T03:22:54;24.80;54.10
78184;DHT22;67442;44.570;18.610;2023-08-20T03:25:25;24.80;54.10
78184;DHT22;67442;44.570;18.610;2023-08-20T03:27:53;24.80;54.10
78184;DHT22;67442;44.570;18.610;2023-08-20T03:30:21;24.80;54.10
78184;DHT22;67442;44.570;18.610;2023-08-20T03:32:47;24.80;54.00
78184;DHT22;67442;44.570;18.610;2023-08-20T03:35:14;24.80;54.00
78184;DHT22;67442;44.570;18.610;2023-08-20T03:37:42;24.80;54.00
78184;DHT22;67442;44.570;18.610;2023-08-20T03:40:13;24.80;54.00
78184;DHT22;67442;44.570;18.610;2023-08-20T03:42:42;24.80;54.00
78184;DHT22;67442;44.570;18.610;2023-08-20T03:45:13;24.80;53.90
78184;DHT22;67442;44.570;18.610;2023-08-20T03:47:40;24.80;54.00
78184;DHT22;67442;44.570;18.610;2023-08-20T03:50:13;24.80;53.90
78184;DHT22;67442;44.570;18.610;2023-08-20T03:52:40;24.80;53.90
78184;DHT22;67442;44.570;18.610;2023-08-20T03:55:10;24.80;53.90
78184;DHT22;67442;44.570;18.610;2023-08-20T03:57:41;24.80;53.90
78184;DHT22;67442;44.570;18.610;2023-08-20T04:00:10;24.80;53.90
78184;DHT22;67442;44.570;18.610;2023-08-20T04:02:38;24.80;53.90
78184;DHT22;67442;44.570;18.610;2023-08-20T04:05:05;24.80;53.80
78184;DHT22;67442;44.570;18.610;2023-08-20T04:07:33;24.80;53.80
78184;DHT22;67442;44.570;18.610;2023-08-20T04:10:00;24.80;53.80
78184;DHT22;67442;44.570;18.610;2023-08-20T04:12:28;24.80;53.80
78184;DHT22;67442;44.570;18.610;2023-08-20T04:14:55;24.80;53.80
78184;DHT22;67442;44.570;18.610;2023-08-20T04:17:22;24.80;53.80
78184;DHT22;67442;44.570;18.610;2023-08-20T04:19:49;24.70;53.70
78184;DHT22;67442;44.570;18.610;2023-08-20T04:22:17;24.80;53.70
78184;DHT22;67442;44.570;18.610;2023-08-20T04:24:47;24.80;53.70
78184;DHT22;67442;44.570;18.610;2023-08-20T04:27:14;24.80;53.70
78184;DHT22;67442;44.570;18.610;2023-08-20T04:29:46;24.70;53.60
78184;DHT22;67442;44.570;18.610;2023-08-20T04:32:16;24.70;53.60
78184;DHT22;67442;44.570;18.610;2023-08-20T04:34:44;24.80;53.60
78184;DHT22;67442;44.570;18.610;2023-08-20T04:37:17;24.70;53.60
78184;DHT22;67442;44.570;18.610;2023-08-20T04:39:44;24.70;53.60
78184;DHT22;67442;44.570;18.610;2023-08-20T04:42:11;24.80;53.70
78184;DHT22;67442;44.570;18.610;2023-08-20T04:44:38;24.70;53.90
78184;DHT22;67442;44.570;18.610;2023-08-20T04:47:10;24.80;54.10
78184;DHT22;67442;44.570;18.610;2023-08-20T04:49:44;24.80;54.30
78184;DHT22;67442;44.570;18.610;2023-08-20T04:52:11;24.80;54.40
78184;DHT22;67442;44.570;18.610;2023-08-20T04:54:42;24.90;54.50
78184;DHT22;67442;44.570;18.610;2023-08-20T04:57:10;24.90;54.70
78184;DHT22;67442;44.570;18.610;2023-08-20T04:59:37;24.90;54.80
78184;DHT22;67442;44.570;18.610;2023-08-20T05:02:05;25.00;55.00
78184;DHT22;67442;44.570;18.610;2023-08-20T05:04:32;25.00;55.00
78184;DHT22;67442;44.570;18.610;2023-08-20T05:06:59;25.00;55.10
78184;DHT22;67442;44.570;18.610;2023-08-20T05:09:27;25.00;55.20
78184;DHT22;67442;44.570;18.610;2023-08-20T05:11:54;25.00;55.30
78184;DHT22;67442;44.570;18.610;2023-08-20T05:14:22;25.10;55.50
78184;DHT22;67442;44.570;18.610;2023-08-20T05:16:49;25.10;55.50
78184;DHT22;67442;44.570;18.610;2023-08-20T05:19:17;25.10;55.60
78184;DHT22;67442;44.570;18.610;2023-08-20T05:21:44;25.10;55.70
78184;DHT22;67442;44.570;18.610;2023-08-20T05:24:11;25.10;55.80
78184;DHT22;67442;44.570;18.610;2023-08-20T05:26:38;25.10;55.80
78184;DHT22;67442;44.570;18.610;2023-08-20T05:29:10;25.10;55.90
78184;DHT22;67442;44.570;18.610;2023-08-20T05:31:41;25.20;56.00
78184;DHT22;67442;44.570;18.610;2023-08-20T05:34:08;25.20;56.10
78184;DHT22;67442;44.570;18.610;2023-08-20T05:36:39;25.20;56.10
78184;DHT22;67442;44.570;18.610;2023-08-20T05:39:11;25.20;56.20
78184;DHT22;67442;44.570;18.610;2023-08-20T05:41:38;25.20;56.20
78184;DHT22;67442;44.570;18.610;2023-08-20T05:44:05;25.30;56.30
78184;DHT22;67442;44.570;18.610;2023-08-20T05:46:33;25.30;56.40
78184;DHT22;67442;44.570;18.610;2023-08-20T05:49:01;25.30;56.50
78184;DHT22;67442;44.570;18.610;2023-08-20T05:51:28;25.30;56.50
78184;DHT22;67442;44.570;18.610;2023-08-20T05:53:55;25.40;56.60
78184;DHT22;67442;44.570;18.610;2023-08-20T05:56:23;25.30;56.50
78184;DHT22;67442;44.570;18.610;2023-08-20T05:58:50;25.40;56.60
78184;DHT22;67442;44.570;18.610;2023-08-20T06:01:17;25.40;56.60
78184;DHT22;67442;44.570;18.610;2023-08-20T06:03:48;25.40;56.60
78184;DHT22;67442;44.570;18.610;2023-08-20T06:06:16;25.40;56.70
78184;DHT22;67442;44.570;18.610;2023-08-20T06:08:43;25.40;56.70
78184;DHT22;67442;44.570;18.610;2023-08-20T06:11:14;25.40;56.80
78184;DHT22;67442;44.570;18.610;2023-08-20T06:13:42;25.40;56.80
78184;DHT22;67442;44.570;18.610;2023-08-20T06:16:12;25.40;56.90
78184;DHT22;67442;44.570;18.610;2023-08-20T06:18:40;25.40;56.80
78184;DHT22;67442;44.570;18.610;2023-08-20T06:21:11;25.40;56.90
78184;DHT22;67442;44.570;18.610;2023-08-20T06:23:39;25.40;56.90
78184;DHT22;67442;44.570;18.610;2023-08-20T06:26:07;25.40;57.60
78184;DHT22;67442;44.570;18.610;2023-08-20T06:28:34;25.40;56.90
78184;DHT22;67442;44.570;18.610;2023-08-20T06:31:02;25.50;57.00
78184;DHT22;67442;44.570;18.610;2023-08-20T06:33:33;25.50;57.10
78184;DHT22;67442;44.570;18.610;2023-08-20T06:36:00;25.50;57.10
78184;DHT22;67442;44.570;18.610;2023-08-20T06:38:28;25.50;57.10
78184;DHT22;67442;44.570;18.610;2023-08-20T06:40:59;25.50;57.20
78184;DHT22;67442;44.570;18.610;2023-08-20T06:43:31;25.50;57.30
78184;DHT22;67442;44.570;18.610;2023-08-20T06:45:58;25.50;57.30
78184;DHT22;67442;44.570;18.610;2023-08-20T06:48:25;25.50;57.40
78184;DHT22;67442;44.570;18.610;2023-08-20T06:50:53;25.50;57.40
78184;DHT22;67442;44.570;18.610;2023-08-20T06:53:20;25.50;57.50
78184;DHT22;67442;44.570;18.610;2023-08-20T06:55:48;25.60;57.60
78184;DHT22;67442;44.570;18.610;2023-08-20T06:58:16;25.60;57.70
78184;DHT22;67442;44.570;18.610;2023-08-20T07:00:43;25.60;57.70
78184;DHT22;67442;44.570;18.610;2023-08-20T07:03:11;25.60;57.90
78184;DHT22;67442;44.570;18.610;2023-08-20T07:05:42;25.60;58.10
78184;DHT22;67442;44.570;18.610;2023-08-20T07:08:13;25.60;58.20
78184;DHT22;67442;44.570;18.610;2023-08-20T07:10:40;25.60;58.30
78184;DHT22;67442;44.570;18.610;2023-08-20T07:13:08;25.60;58.30
78184;DHT22;67442;44.570;18.610;2023-08-20T07:15:35;25.60;58.80
78184;DHT22;67442;44.570;18.610;2023-08-20T07:18:06;25.60;58.80
78184;DHT22;67442;44.570;18.610;2023-08-20T07:20:37;25.60;58.80
78184;DHT22;67442;44.570;18.610;2023-08-20T07:23:05;25.70;58.90
78184;DHT22;67442;44.570;18.610;2023-08-20T07:25:32;25.70;59.00
78184;DHT22;67442;44.570;18.610;2023-08-20T07:28:04;25.70;59.00
78184;DHT22;67442;44.570;18.610;2023-08-20T07:30:31;25.70;59.10
78184;DHT22;67442;44.570;18.610;2023-08-20T07:33:04;25.70;59.20
78184;DHT22;67442;44.570;18.610;2023-08-20T07:35:30;25.70;59.20
78184;DHT22;67442;44.570;18.610;2023-08-20T07:38:02;25.70;59.30
78184;DHT22;67442;44.570;18.610;2023-08-20T07:40:30;25.70;59.40
78184;DHT22;67442;44.570;18.610;2023-08-20T07:42:57;25.70;59.40
78184;DHT22;67442;44.570;18.610;2023-08-20T07:45:25;25.70;59.50
78184;DHT22;67442;44.570;18.610;2023-08-20T07:47:52;25.80;59.60
78184;DHT22;67442;44.570;18.610;2023-08-20T07:50:20;25.70;59.70
78184;DHT22;67442;44.570;18.610;2023-08-20T07:52:47;25.80;59.80
78184;DHT22;67442;44.570;18.610;2023-08-20T07:55:14;25.80;59.80
78184;DHT22;67442;44.570;18.610;2023-08-20T07:57:41;25.80;59.90
78184;DHT22;67442;44.570;18.610;2023-08-20T08:00:15;25.80;60.00
78184;DHT22;67442;44.570;18.610;2023-08-20T08:02:43;25.80;60.10
78184;DHT22;67442;44.570;18.610;2023-08-20T08:05:14;25.80;60.20
78184;DHT22;67442;44.570;18.610;2023-08-20T08:07:42;25.80;60.30
78184;DHT22;67442;44.570;18.610;2023-08-20T08:10:09;25.80;60.50
78184;DHT22;67442;44.570;18.610;2023-08-20T08:12:37;25.80;60.70
78184;DHT22;67442;44.570;18.610;2023-08-20T08:15:05;25.80;60.80
78184;DHT22;67442;44.570;18.610;2023-08-20T08:17:33;25.80;60.80
78184;DHT22;67442;44.570;18.610;2023-08-20T08:20:01;25.80;60.90
78184;DHT22;67442;44.570;18.610;2023-08-20T08:22:31;25.80;60.90
78184;DHT22;67442;44.570;18.610;2023-08-20T08:25:02;25.90;61.10
78184;DHT22;67442;44.570;18.610;2023-08-20T08:27:30;25.90;62.10
78184;DHT22;67442;44.570;18.610;2023-08-20T08:29:57;25.90;61.50
78184;DHT22;67442;44.570;18.610;2023-08-20T08:32:28;25.90;61.60
78184;DHT22;67442;44.570;18.610;2023-08-20T08:34:55;25.90;61.70
78184;DHT22;67442;44.570;18.610;2023-08-20T08:37:23;25.90;61.80
78184;DHT22;67442;44.570;18.610;2023-08-20T08:39:54;25.90;61.80
78184;DHT22;67442;44.570;18.610;2023-08-20T08:42:22;26.00;62.00
78184;DHT22;67442;44.570;18.610;2023-08-20T08:44:52;26.00;62.00
78184;DHT22;67442;44.570;18.610;2023-08-20T08:47:21;25.90;62.10
78184;DHT22;67442;44.570;18.610;2023-08-20T08:49:54;26.00;62.20
78184;DHT22;67442;44.570;18.610;2023-08-20T08:52:23;26.00;62.30
78184;DHT22;67442;44.570;18.610;2023-08-20T08:54:50;26.00;62.40
78184;DHT22;67442;44.570;18.610;2023-08-20T08:57:17;26.00;62.50
78184;DHT22;67442;44.570;18.610;2023-08-20T08:59:44;26.00;62.60
78184;DHT22;67442;44.570;18.610;2023-08-20T09:02:12;26.00;62.70
78184;DHT22;67442;44.570;18.610;2023-08-20T09:04:40;26.10;62.90
78184;DHT22;67442;44.570;18.610;2023-08-20T09:07:12;26.10;63.00
78184;DHT22;67442;44.570;18.610;2023-08-20T09:09:44;26.10;63.10
78184;DHT22;67442;44.570;18.610;2023-08-20T09:12:18;26.10;63.20
78184;DHT22;67442;44.570;18.610;2023-08-20T09:14:50;26.10;63.30
78184;DHT22;67442;44.570;18.610;2023-08-20T09:17:16;26.10;63.40
78184;DHT22;67442;44.570;18.610;2023-08-20T09:19:48;26.10;63.50
78184;DHT22;67442;44.570;18.610;2023-08-20T09:22:15;26.10;63.70
78184;DHT22;67442;44.570;18.610;2023-08-20T09:24:53;26.10;64.30
78184;DHT22;67442;44.570;18.610;2023-08-20T09:27:20;26.10;65.00
78184;DHT22;67442;44.570;18.610;2023-08-20T09:29:48;26.10;65.30
78184;DHT22;67442;44.570;18.610;2023-08-20T09:32:21;26.10;65.70
78184;DHT22;67442;44.570;18.610;2023-08-20T09:34:49;26.20;65.70
78184;DHT22;67442;44.570;18.610;2023-08-20T09:37:19;26.20;65.40
78184;DHT22;67442;44.570;18.610;2023-08-20T09:39:51;26.20;65.30
78184;DHT22;67442;44.570;18.610;2023-08-20T09:42:18;26.20;65.10
78184;DHT22;67442;44.570;18.610;2023-08-20T09:44:46;26.20;65.20
78184;DHT22;67442;44.570;18.610;2023-08-20T09:47:14;26.20;65.00
78184;DHT22;67442;44.570;18.610;2023-08-20T09:49:47;26.20;65.00
78184;DHT22;67442;44.570;18.610;2023-08-20T09:52:25;26.20;65.00
78184;DHT22;67442;44.570;18.610;2023-08-20T09:57:36;26.20;65.00
78184;DHT22;67442;44.570;18.610;2023-08-20T10:00:17;26.30;65.10
78184;DHT22;67442;44.570;18.610;2023-08-20T10:02:44;26.30;65.10
78184;DHT22;67442;44.570;18.610;2023-08-20T10:05:12;26.30;65.10
78184;DHT22;67442;44.570;18.610;2023-08-20T10:07:46;26.20;65.20
78184;DHT22;67442;44.570;18.610;2023-08-20T10:10:18;26.30;65.20
78184;DHT22;67442;44.570;18.610;2023-08-20T10:12:45;26.30;65.20
78184;DHT22;67442;44.570;18.610;2023-08-20T10:15:14;26.30;65.70
78184;DHT22;67442;44.570;18.610;2023-08-20T10:17:45;26.30;66.10
78184;DHT22;67442;44.570;18.610;2023-08-20T10:20:14;26.30;66.10
78184;DHT22;67442;44.570;18.610;2023-08-20T10:23:03;26.20;66.00
78184;DHT22;67442;44.570;18.610;2023-08-20T10:25:30;26.20;65.90
78184;DHT22;67442;44.570;18.610;2023-08-20T10:31:02;26.10;65.50
78184;DHT22;67442;44.570;18.610;2023-08-20T10:33:30;26.10;65.40
78184;DHT22;67442;44.570;18.610;2023-08-20T10:35:58;26.10;65.10
78184;DHT22;67442;44.570;18.610;2023-08-20T10:38:36;26.00;64.80
78184;DHT22;67442;44.570;18.610;2023-08-20T10:41:06;26.00;64.60
78184;DHT22;67442;44.570;18.610;2023-08-20T10:43:46;25.90;64.30
78184;DHT22;67442;44.570;18.610;2023-08-20T10:46:27;25.90;64.00
78184;DHT22;67442;44.570;18.610;2023-08-20T10:48:57;25.90;63.90
78184;DHT22;67442;44.570;18.610;2023-08-20T10:51:24;25.90;63.60
78184;DHT22;67442;44.570;18.610;2023-08-20T10:56:45;25.90;63.20
78184;DHT22;67442;44.570;18.610;2023-08-20T10:59:21;25.80;63.00
78184;DHT22;67442;44.570;18.610;2023-08-20T11:01:54;25.80;62.80
78184;DHT22;67442;44.570;18.610;2023-08-20T11:04:31;25.80;62.70
78184;DHT22;67442;44.570;18.610;2023-08-20T11:07:03;25.80;62.60
78184;DHT22;67442;44.570;18.610;2023-08-20T11:09:32;25.80;62.40
78184;DHT22;67442;44.570;18.610;2023-08-20T11:11:59;25.80;62.30
78184;DHT22;67442;44.570;18.610;2023-08-20T11:14:26;25.70;62.10
78184;DHT22;67442;44.570;18.610;2023-08-20T11:16:58;25.70;61.90
78184;DHT22;67442;44.570;18.610;2023-08-20T11:19:25;25.70;61.90
78184;DHT22;67442;44.570;18.610;2023-08-20T11:21:57;25.70;61.70
78184;DHT22;67442;44.570;18.610;2023-08-20T11:24:29;25.70;61.60
78184;DHT22;67442;44.570;18.610;2023-08-20T11:26:55;25.60;61.40
78184;DHT22;67442;44.570;18.610;2023-08-20T11:29:24;25.60;61.30
78184;DHT22;67442;44.570;18.610;2023-08-20T11:31:52;25.60;61.10
78184;DHT22;67442;44.570;18.610;2023-08-20T11:34:19;25.60;60.90
78184;DHT22;67442;44.570;18.610;2023-08-20T11:36:47;25.60;60.80
78184;DHT22;67442;44.570;18.610;2023-08-20T11:39:14;25.60;60.70
78184;DHT22;67442;44.570;18.610;2023-08-20T11:41:45;25.50;60.40
78184;DHT22;67442;44.570;18.610;2023-08-20T11:44:20;25.50;60.30
78184;DHT22;67442;44.570;18.610;2023-08-20T11:46:51;25.50;60.20
78184;DHT22;67442;44.570;18.610;2023-08-20T11:49:27;25.50;60.00
78184;DHT22;67442;44.570;18.610;2023-08-20T11:51:56;25.50;60.00
78184;DHT22;67442;44.570;18.610;2023-08-20T11:54:23;25.50;59.90
78184;DHT22;67442;44.570;18.610;2023-08-20T11:56:52;25.50;59.80
78184;DHT22;67442;44.570;18.610;2023-08-20T11:59:23;25.40;59.60
78184;DHT22;67442;44.570;18.610;2023-08-20T12:02:01;25.40;59.60
78184;DHT22;67442;44.570;18.610;2023-08-20T12:04:32;25.40;59.50
78184;DHT22;67442;44.570;18.610;2023-08-20T12:07:25;25.40;59.40
78184;DHT22;67442;44.570;18.610;2023-08-20T12:09:51;25.40;59.40
78184;DHT22;67442;44.570;18.610;2023-08-20T12:12:19;25.40;59.40
78184;DHT22;67442;44.570;18.610;2023-08-20T12:14:50;25.40;59.40
78184;DHT22;67442;44.570;18.610;2023-08-20T12:17:21;25.40;59.30
78184;DHT22;67442;44.570;18.610;2023-08-20T12:19:49;25.40;59.30
78184;DHT22;67442;44.570;18.610;2023-08-20T12:22:20;25.40;59.20
78184;DHT22;67442;44.570;18.610;2023-08-20T12:24:47;25.40;59.10
78184;DHT22;67442;44.570;18.610;2023-08-20T12:27:18;25.40;59.00
78184;DHT22;67442;44.570;18.610;2023-08-20T12:29:45;25.40;59.00
78184;DHT22;67442;44.570;18.610;2023-08-20T12:32:14;25.30;58.80
78184;DHT22;67442;44.570;18.610;2023-08-20T12:34:46;25.40;58.80
78184;DHT22;67442;44.570;18.610;2023-08-20T12:37:13;25.30;58.70
78184;DHT22;67442;44.570;18.610;2023-08-20T12:39:41;25.30;58.70
78184;DHT22;67442;44.570;18.610;2023-08-20T12:42:12;25.30;58.60
78184;DHT22;67442;44.570;18.610;2023-08-20T12:44:40;25.30;58.50
78184;DHT22;67442;44.570;18.610;2023-08-20T12:47:07;25.30;58.40
78184;DHT22;67442;44.570;18.610;2023-08-20T12:49:35;25.30;58.30
78184;DHT22;67442;44.570;18.610;2023-08-20T12:52:01;25.30;58.20
78184;DHT22;67442;44.570;18.610;2023-08-20T12:54:29;25.30;58.20
78184;DHT22;67442;44.570;18.610;2023-08-20T12:56:56;25.30;58.10
78184;DHT22;67442;44.570;18.610;2023-08-20T12:59:23;25.30;58.10
78184;DHT22;67442;44.570;18.610;2023-08-20T13:01:50;25.30;58.00
78184;DHT22;67442;44.570;18.610;2023-08-20T13:04:18;25.40;58.10
78184;DHT22;67442;44.570;18.610;2023-08-20T13:06:46;25.30;58.00
78184;DHT22;67442;44.570;18.610;2023-08-20T13:09:15;25.30;57.90
78184;DHT22;67442;44.570;18.610;2023-08-20T13:11:43;25.30;57.80
78184;DHT22;67442;44.570;18.610;2023-08-20T13:14:11;25.30;57.70
78184;DHT22;67442;44.570;18.610;2023-08-20T13:16:39;25.30;57.70
78184;DHT22;67442;44.570;18.610;2023-08-20T13:19:09;25.30;58.20
78184;DHT22;67442;44.570;18.610;2023-08-20T13:21:36;25.30;57.50
78184;DHT22;67442;44.570;18.610;2023-08-20T13:24:08;25.30;57.40
78184;DHT22;67442;44.570;18.610;2023-08-20T13:26:39;25.30;57.40
78184;DHT22;67442;44.570;18.610;2023-08-20T13:29:06;25.30;57.30
78184;DHT22;67442;44.570;18.610;2023-08-20T13:31:34;25.30;57.30
78184;DHT22;67442;44.570;18.610;2023-08-20T13:34:02;25.30;57.30
78184;DHT22;67442;44.570;18.610;2023-08-20T13:36:29;25.30;57.20
78184;DHT22;67442;44.570;18.610;2023-08-20T13:38:57;25.30;57.10
78184;DHT22;67442;44.570;18.610;2023-08-20T13:41:24;25.30;57.10
78184;DHT22;67442;44.570;18.610;2023-08-20T13:43:51;25.30;57.10
78184;DHT22;67442;44.570;18.610;2023-08-20T13:46:19;25.30;57.00
78184;DHT22;67442;44.570;18.610;2023-08-20T13:48:47;25.30;57.00
78184;DHT22;67442;44.570;18.610;2023-08-20T13:51:14;25.30;57.00
78184;DHT22;67442;44.570;18.610;2023-08-20T13:53:42;25.30;56.90
78184;DHT22;67442;44.570;18.610;2023-08-20T13:56:09;25.30;56.90
78184;DHT22;67442;44.570;18.610;2023-08-20T13:58:36;25.20;56.80
78184;DHT22;67442;44.570;18.610;2023-08-20T14:01:04;25.30;56.80
78184;DHT22;67442;44.570;18.610;2023-08-20T14:03:33;25.30;56.70
78184;DHT22;67442;44.570;18.610;2023-08-20T14:06:00;25.20;56.60
78184;DHT22;67442;44.570;18.610;2023-08-20T14:08:32;25.20;56.60
78184;DHT22;67442;44.570;18.610;2023-08-20T14:10:59;25.30;56.60
78184;DHT22;67442;44.570;18.610;2023-08-20T14:13:27;25.20;56.50
78184;DHT22;67442;44.570;18.610;2023-08-20T14:15:54;25.30;56.50
78184;DHT22;67442;44.570;18.610;2023-08-20T14:18:24;25.20;56.30
78184;DHT22;67442;44.570;18.610;2023-08-20T14:20:52;25.20;56.30
78184;DHT22;67442;44.570;18.610;2023-08-20T14:23:20;25.20;56.20
78184;DHT22;67442;44.570;18.610;2023-08-20T14:25:47;25.20;56.20
78184;DHT22;67442;44.570;18.610;2023-08-20T14:28:19;25.20;56.20
78184;DHT22;67442;44.570;18.610;2023-08-20T14:30:47;25.20;56.10
78184;DHT22;67442;44.570;18.610;2023-08-20T14:33:16;25.20;56.10
78184;DHT22;67442;44.570;18.610;2023-08-20T14:35:46;25.20;56.10
78184;DHT22;67442;44.570;18.610;2023-08-20T14:38:14;25.20;56.00
78184;DHT22;67442;44.570;18.610;2023-08-20T14:40:42;25.20;56.10
78184;DHT22;67442;44.570;18.610;2023-08-20T14:43:12;25.20;56.00
78184;DHT22;67442;44.570;18.610;2023-08-20T14:45:39;25.20;56.00
78184;DHT22;67442;44.570;18.610;2023-08-20T14:48:10;25.20;56.00
78184;DHT22;67442;44.570;18.610;2023-08-20T14:50:37;25.20;55.90
78184;DHT22;67442;44.570;18.610;2023-08-20T14:53:08;25.10;55.90
78184;DHT22;67442;44.570;18.610;2023-08-20T14:55:40;25.10;55.90
78184;DHT22;67442;44.570;18.610;2023-08-20T14:58:06;25.20;56.20
78184;DHT22;67442;44.570;18.610;2023-08-20T15:00:33;25.20;56.30
78184;DHT22;67442;44.570;18.610;2023-08-20T15:03:05;25.20;56.60
78184;DHT22;67442;44.570;18.610;2023-08-20T15:05:33;25.30;56.80
78184;DHT22;67442;44.570;18.610;2023-08-20T15:08:00;25.30;57.00
78184;DHT22;67442;44.570;18.610;2023-08-20T15:10:27;25.40;57.20
78184;DHT22;67442;44.570;18.610;2023-08-20T15:12:55;25.40;57.30
78184;DHT22;67442;44.570;18.610;2023-08-20T15:15:22;25.40;57.40
78184;DHT22;67442;44.570;18.610;2023-08-20T15:17:49;25.40;57.60
78184;DHT22;67442;44.570;18.610;2023-08-20T15:20:18;25.50;57.70
78184;DHT22;67442;44.570;18.610;2023-08-20T15:22:45;25.50;57.80
78184;DHT22;67442;44.570;18.610;2023-08-20T15:25:13;25.60;58.00
78184;DHT22;67442;44.570;18.610;2023-08-20T15:27:43;25.60;58.10
78184;DHT22;67442;44.570;18.610;2023-08-20T15:30:14;25.60;58.10
78184;DHT22;67442;44.570;18.610;2023-08-20T15:32:43;25.60;58.10
78184;DHT22;67442;44.570;18.610;2023-08-20T15:35:10;25.70;58.30
78184;DHT22;67442;44.570;18.610;2023-08-20T15:37:41;25.70;58.30
78184;DHT22;67442;44.570;18.610;2023-08-20T15:40:10;25.70;58.30
78184;DHT22;67442;44.570;18.610;2023-08-20T15:42:39;25.70;58.40
78184;DHT22;67442;44.570;18.610;2023-08-20T15:45:08;25.70;58.40